sensor_id;sensor_type;location;lat;lon;timestamp;temperature;humidity
47604;DHT22;33326;51.116;6.900;2022-11-15T00:02:24;11.30;99.90
47604;DHT22;33326;51.116;6.900;2022-11-15T00:07:46;11.30;99.90
47604;DHT22;33326;51.116;6.900;2022-11-15T00:13:07;11.40;99.90
47604;DHT22;33326;51.116;6.900;2022-11-15T00:18:29;11.40;99.90
47604;DHT22;33326;51.116;6.900;2022-11-15T00:23:50;11.50;99.90
47604;DHT22;33326;51.116;6.900;2022-11-15T00:29:11;11.50;99.90
47604;DHT22;33326;51.116;6.900;2022-11-15T00:34:32;11.50;99.90
47604;DHT22;33326;51.116;6.900;2022-11-15T00:39:53;11.60;99.90
47604;DHT22;33326;51.116;6.900;2022-11-15T00:45:13;11.60;99.90
47604;DHT22;33326;51.116;6.900;2022-11-15T00:50:35;11.70;99.90
47604;DHT22;33326;51.116;6.900;2022-11-15T00:55:56;11.80;99.90
47604;DHT22;33326;51.116;6.900;2022-11-15T01:01:16;11.80;99.90
47604;DHT22;33326;51.116;6.900;2022-11-15T01:06:38;11.80;99.90
47604;DHT22;33326;51.116;6.900;2022-11-15T01:11:58;11.90;99.90
47604;DHT22;33326;51.116;6.900;2022-11-15T01:17:19;11.90;99.90
47604;DHT22;33326;51.116;6.900;2022-11-15T01:22:41;11.90;99.90
47604;DHT22;33326;51.116;6.900;2022-11-15T01:28:01;11.90;99.90
47604;DHT22;33326;51.116;6.900;2022-11-15T01:33:22;11.90;99.90
47604;DHT22;33326;51.116;6.900;2022-11-15T01:38:43;12.00;99.90
47604;DHT22;33326;51.116;6.900;2022-11-15T01:50:03;12.00;99.90
47604;DHT22;33326;51.116;6.900;2022-11-15T01:55:26;12.00;99.90
47604;DHT22;33326;51.116;6.900;2022-11-15T02:00:48;12.10;99.90
47604;DHT22;33326;51.116;6.900;2022-11-15T02:06:10;12.10;99.90
47604;DHT22;33326;51.116;6.900;2022-11-15T02:11:31;12.10;99.90
47604;DHT22;33326;51.116;6.900;2022-11-15T02:16:58;12.20;99.90
47604;DHT22;33326;51.116;6.900;2022-11-15T02:22:28;12.20;99.90
47604;DHT22;33326;51.116;6.900;2022-11-15T02:33:54;12.20;99.90
47604;DHT22;33326;51.116;6.900;2022-11-15T02:39:23;12.20;99.90
47604;DHT22;33326;51.116;6.900;2022-11-15T02:44:46;12.20;99.90
47604;DHT22;33326;51.116;6.900;2022-11-15T02:50:10;12.30;99.90
47604;DHT22;33326;51.116;6.900;2022-11-15T02:55:33;12.30;99.90
47604;DHT22;33326;51.116;6.900;2022-11-15T03:00:59;12.40;99.90
47604;DHT22;33326;51.116;6.900;2022-11-15T03:06:26;12.40;99.90
47604;DHT22;33326;51.116;6.900;2022-11-15T03:11:52;12.40;99.90
47604;DHT22;33326;51.116;6.900;2022-11-15T03:17:18;12.40;99.90
47604;DHT22;33326;51.116;6.900;2022-11-15T03:22:43;12.50;99.90
47604;DHT22;33326;51.116;6.900;2022-11-15T03:28:05;12.50;99.90
47604;DHT22;33326;51.116;6.900;2022-11-15T03:33:27;12.50;99.90
47604;DHT22;33326;51.116;6.900;2022-11-15T03:38:52;12.50;99.90
47604;DHT22;33326;51.116;6.900;2022-11-15T03:44:16;12.50;99.90
47604;DHT22;33326;51.116;6.900;2022-11-15T03:49:44;12.50;99.90
47604;DHT22;33326;51.116;6.900;2022-11-15T03:55:09;12.60;99.90
47604;DHT22;33326;51.116;6.900;2022-11-15T04:00:30;12.60;99.90
47604;DHT22;33326;51.116;6.900;2022-11-15T04:05:51;12.60;99.90
47604;DHT22;33326;51.116;6.900;2022-11-15T04:11:13;12.60;99.90
47604;DHT22;33326;51.116;6.900;2022-11-15T04:16:34;12.60;99.90
47604;DHT22;33326;51.116;6.900;2022-11-15T04:21:54;12.60;99.90
47604;DHT22;33326;51.116;6.900;2022-11-15T04:27:35;12.60;99.90
47604;DHT22;33326;51.116;6.900;2022-11-15T04:32:56;12.60;99.90
47604;DHT22;33326;51.116;6.900;2022-11-15T04:38:16;12.50;99.90
47604;DHT22;33326;51.116;6.900;2022-11-15T04:43:38;12.60;99.90
47604;DHT22;33326;51.116;6.900;2022-11-15T04:48:58;12.50;99.90
47604;DHT22;33326;51.116;6.900;2022-11-15T04:54:19;12.60;99.90
47604;DHT22;33326;51.116;6.900;2022-11-15T04:59:41;12.60;99.90
47604;DHT22;33326;51.116;6.900;2022-11-15T05:05:01;12.70;99.90
47604;DHT22;33326;51.116;6.900;2022-11-15T05:10:22;12.60;99.90
47604;DHT22;33326;51.116;6.900;2022-11-15T05:15:43;12.70;99.90
47604;DHT22;33326;51.116;6.900;2022-11-15T05:21:05;12.70;99.90
47604;DHT22;33326;51.116;6.900;2022-11-15T05:26:25;12.70;99.90
47604;DHT22;33326;51.116;6.900;2022-11-15T05:31:47;12.70;99.90
47604;DHT22;33326;51.116;6.900;2022-11-15T05:37:07;12.70;99.90
47604;DHT22;33326;51.116;6.900;2022-11-15T05:42:29;12.80;99.90
47604;DHT22;33326;51.116;6.900;2022-11-15T05:47:53;12.80;99.90
47604;DHT22;33326;51.116;6.900;2022-11-15T05:53:16;12.80;99.90
47604;DHT22;33326;51.116;6.900;2022-11-15T05:58:38;12.80;99.90
47604;DHT22;33326;51.116;6.900;2022-11-15T06:04:00;12.80;99.90
47604;DHT22;33326;51.116;6.900;2022-11-15T06:09:20;12.90;99.90
47604;DHT22;33326;51.116;6.900;2022-11-15T06:14:41;12.90;99.90
47604;DHT22;33326;51.116;6.900;2022-11-15T06:20:03;12.90;99.90
47604;DHT22;33326;51.116;6.900;2022-11-15T06:25:24;12.90;99.90
47604;DHT22;33326;51.116;6.900;2022-11-15T06:30:44;12.90;99.90
47604;DHT22;33326;51.116;6.900;2022-11-15T06:36:08;12.80;99.90
47604;DHT22;33326;51.116;6.900;2022-11-15T06:41:29;12.80;99.90
47604;DHT22;33326;51.116;6.900;2022-11-15T06:46:49;12.60;99.90
47604;DHT22;33326;51.116;6.900;2022-11-15T06:52:11;12.60;99.90
47604;DHT22;33326;51.116;6.900;2022-11-15T06:57:32;12.60;99.90
47604;DHT22;33326;51.116;6.900;2022-11-15T07:02:52;12.60;99.90
47604;DHT22;33326;51.116;6.900;2022-11-15T07:08:14;12.60;99.90
47604;DHT22;33326;51.116;6.900;2022-11-15T07:13:35;12.60;99.90
47604;DHT22;33326;51.116;6.900;2022-11-15T07:18:56;12.70;99.90
47604;DHT22;33326;51.116;6.900;2022-11-15T07:24:17;12.60;99.90
47604;DHT22;33326;51.116;6.900;2022-11-15T07:29:38;12.50;99.90
47604;DHT22;33326;51.116;6.900;2022-11-15T07:34:58;12.50;99.90
47604;DHT22;33326;51.116;6.900;2022-11-15T07:40:20;12.60;99.90
47604;DHT22;33326;51.116;6.900;2022-11-15T07:45:42;12.70;99.90
47604;DHT22;33326;51.116;6.900;2022-11-15T07:51:02;12.70;99.90
47604;DHT22;33326;51.116;6.900;2022-11-15T07:56:24;12.70;99.90
47604;DHT22;33326;51.116;6.900;2022-11-15T08:01:45;12.70;99.90
47604;DHT22;33326;51.116;6.900;2022-11-15T08:07:05;12.70;99.90
47604;DHT22;33326;51.116;6.900;2022-11-15T08:12:27;12.70;99.90
47604;DHT22;33326;51.116;6.900;2022-11-15T08:17:53;12.60;99.90
47604;DHT22;33326;51.116;6.900;2022-11-15T08:23:13;12.70;99.90
47604;DHT22;33326;51.116;6.900;2022-11-15T08:28:35;12.60;99.90
47604;DHT22;33326;51.116;6.900;2022-11-15T08:33:56;12.60;99.90
47604;DHT22;33326;51.116;6.900;2022-11-15T08:39:17;12.70;99.90
47604;DHT22;33326;51.116;6.900;2022-11-15T08:44:39;12.70;99.90
47604;DHT22;33326;51.116;6.900;2022-11-15T08:49:59;12.70;99.90
47604;DHT22;33326;51.116;6.900;2022-11-15T08:55:19;12.80;99.90
47604;DHT22;33326;51.116;6.900;2022-11-15T09:00:41;12.80;99.90
47604;DHT22;33326;51.116;6.900;2022-11-15T09:06:02;12.90;99.90
47604;DHT22;33326;51.116;6.900;2022-11-15T09:11:23;12.90;99.90
47604;DHT22;33326;51.116;6.900;2022-11-15T09:16:45;12.90;99.90
47604;DHT22;33326;51.116;6.900;2022-11-15T09:22:06;13.00;99.90
47604;DHT22;33326;51.116;6.900;2022-11-15T09:27:27;13.00;99.90
47604;DHT22;33326;51.116;6.900;2022-11-15T09:32:49;13.20;99.90
47604;DHT22;33326;51.116;6.900;2022-11-15T09:38:10;13.20;99.90
47604;DHT22;33326;51.116;6.900;2022-11-15T09:43:35;13.30;99.90
47604;DHT22;33326;51.116;6.900;2022-11-15T09:49:02;13.40;99.90
47604;DHT22;33326;51.116;6.900;2022-11-15T09:54:30;13.50;99.90
47604;DHT22;33326;51.116;6.900;2022-11-15T09:59:46;13.50;99.90
47604;DHT22;33326;51.116;6.900;2022-11-15T10:04:53;13.50;99.90
47604;DHT22;33326;51.116;6.900;2022-11-15T10:09:59;13.60;99.90
47604;DHT22;33326;51.116;6.900;2022-11-15T10:15:06;13.60;99.90
47604;DHT22;33326;51.116;6.900;2022-11-15T10:20:15;13.60;99.90
47604;DHT22;33326;51.116;6.900;2022-11-15T10:25:21;13.70;99.90
47604;DHT22;33326;51.116;6.900;2022-11-15T10:30:29;13.70;99.90
47604;DHT22;33326;51.116;6.900;2022-11-15T10:35:33;13.80;99.90
47604;DHT22;33326;51.116;6.900;2022-11-15T10:40:36;13.90;99.90
47604;DHT22;33326;51.116;6.900;2022-11-15T10:45:38;13.90;99.90
47604;DHT22;33326;51.116;6.900;2022-11-15T10:50:43;14.00;99.90
47604;DHT22;33326;51.116;6.900;2022-11-15T10:55:47;14.10;99.90
47604;DHT22;33326;51.116;6.900;2022-11-15T11:00:53;14.10;99.90
47604;DHT22;33326;51.116;6.900;2022-11-15T11:06:09;14.30;99.90
47604;DHT22;33326;51.116;6.900;2022-11-15T11:11:11;14.30;99.90
47604;DHT22;33326;51.116;6.900;2022-11-15T11:16:26;14.40;99.90
47604;DHT22;33326;51.116;6.900;2022-11-15T11:21:41;14.50;99.90
47604;DHT22;33326;51.116;6.900;2022-11-15T11:26:54;14.60;99.90
47604;DHT22;33326;51.116;6.900;2022-11-15T11:32:02;14.60;99.90
47604;DHT22;33326;51.116;6.900;2022-11-15T11:37:20;14.70;99.90
47604;DHT22;33326;51.116;6.900;2022-11-15T11:42:30;14.80;99.90
47604;DHT22;33326;51.116;6.900;2022-11-15T11:47:38;14.90;99.90
47604;DHT22;33326;51.116;6.900;2022-11-15T11:52:52;15.10;99.90
47604;DHT22;33326;51.116;6.900;2022-11-15T11:58:04;15.10;99.90
47604;DHT22;33326;51.116;6.900;2022-11-15T12:03:11;15.20;99.90
47604;DHT22;33326;51.116;6.900;2022-11-15T12:08:29;15.30;99.90
47604;DHT22;33326;51.116;6.900;2022-11-15T12:13:33;15.30;99.90
47604;DHT22;33326;51.116;6.900;2022-11-15T12:18:37;15.40;99.90
47604;DHT22;33326;51.116;6.900;2022-11-15T12:23:43;15.60;99.90
47604;DHT22;33326;51.116;6.900;2022-11-15T12:28:52;15.70;99.90
47604;DHT22;33326;51.116;6.900;2022-11-15T12:33:56;15.90;99.90
47604;DHT22;33326;51.116;6.900;2022-11-15T12:39:01;16.00;99.90
47604;DHT22;33326;51.116;6.900;2022-11-15T12:44:05;16.20;99.90
47604;DHT22;33326;51.116;6.900;2022-11-15T12:49:44;16.30;99.90
47604;DHT22;33326;51.116;6.900;2022-11-15T12:55:02;16.50;99.90
47604;DHT22;33326;51.116;6.900;2022-11-15T13:05:58;18.00;99.90
47604;DHT22;33326;51.116;6.900;2022-11-15T13:11:47;18.30;98.60
47604;DHT22;33326;51.116;6.900;2022-11-15T13:16:49;18.10;98.40
47604;DHT22;33326;51.116;6.900;2022-11-15T13:21:58;17.70;99.90
47604;DHT22;33326;51.116;6.900;2022-11-15T13:27:19;17.30;99.80
47604;DHT22;33326;51.116;6.900;2022-11-15T13:32:21;17.00;99.90
47604;DHT22;33326;51.116;6.900;2022-11-15T13:37:30;16.70;99.90
47604;DHT22;33326;51.116;6.900;2022-11-15T13:42:35;16.70;99.90
47604;DHT22;33326;51.116;6.900;2022-11-15T13:47:36;16.90;99.90
47604;DHT22;33326;51.116;6.900;2022-11-15T13:52:40;16.90;99.90
47604;DHT22;33326;51.116;6.900;2022-11-15T13:57:47;16.90;99.90
47604;DHT22;33326;51.116;6.900;2022-11-15T14:02:49;16.80;99.90
47604;DHT22;33326;51.116;6.900;2022-11-15T14:07:56;16.70;99.90
47604;DHT22;33326;51.116;6.900;2022-11-15T14:13:03;16.50;99.90
47604;DHT22;33326;51.116;6.900;2022-11-15T14:18:05;16.40;99.90
47604;DHT22;33326;51.116;6.900;2022-11-15T14:23:19;16.30;99.90
47604;DHT22;33326;51.116;6.900;2022-11-15T14:28:33;16.10;99.90
47604;DHT22;33326;51.116;6.900;2022-11-15T14:33:38;15.80;99.90
47604;DHT22;33326;51.116;6.900;2022-11-15T14:38:41;15.70;99.90
47604;DHT22;33326;51.116;6.900;2022-11-15T14:43:44;15.60;99.90
47604;DHT22;33326;51.116;6.900;2022-11-15T14:48:46;15.40;99.90
47604;DHT22;33326;51.116;6.900;2022-11-15T14:53:48;15.30;99.90
47604;DHT22;33326;51.116;6.900;2022-11-15T14:58:51;15.30;99.90
47604;DHT22;33326;51.116;6.900;2022-11-15T15:03:55;15.20;99.90
47604;DHT22;33326;51.116;6.900;2022-11-15T15:08:58;15.20;99.90
47604;DHT22;33326;51.116;6.900;2022-11-15T15:14:01;15.10;99.90
47604;DHT22;33326;51.116;6.900;2022-11-15T15:19:03;15.00;99.90
47604;DHT22;33326;51.116;6.900;2022-11-15T15:24:05;15.00;99.90
47604;DHT22;33326;51.116;6.900;2022-11-15T15:29:08;15.00;99.90
47604;DHT22;33326;51.116;6.900;2022-11-15T15:34:10;14.90;99.90
47604;DHT22;33326;51.116;6.900;2022-11-15T15:39:12;14.90;99.90
47604;DHT22;33326;51.116;6.900;2022-11-15T15:44:15;14.80;99.90
47604;DHT22;33326;51.116;6.900;2022-11-15T15:49:17;14.80;99.90
47604;DHT22;33326;51.116;6.900;2022-11-15T15:54:19;14.80;99.90
47604;DHT22;33326;51.116;6.900;2022-11-15T15:59:22;14.70;99.90
47604;DHT22;33326;51.116;6.900;2022-11-15T16:04:24;14.70;99.90
47604;DHT22;33326;51.116;6.900;2022-11-15T16:09:27;14.70;99.90
47604;DHT22;33326;51.116;6.900;2022-11-15T16:14:46;14.60;99.90
47604;DHT22;33326;51.116;6.900;2022-11-15T16:19:48;14.60;99.90
47604;DHT22;33326;51.116;6.900;2022-11-15T16:24:50;14.60;99.90
47604;DHT22;33326;51.116;6.900;2022-11-15T16:29:53;14.60;99.90
47604;DHT22;33326;51.116;6.900;2022-11-15T16:34:55;14.50;99.90
47604;DHT22;33326;51.116;6.900;2022-11-15T16:39:57;14.50;99.90
47604;DHT22;33326;51.116;6.900;2022-11-15T16:45:01;14.50;99.90
47604;DHT22;33326;51.116;6.900;2022-11-15T16:50:03;14.50;99.90
47604;DHT22;33326;51.116;6.900;2022-11-15T16:55:06;14.50;99.90
47604;DHT22;33326;51.116;6.900;2022-11-15T17:00:11;14.50;99.90
47604;DHT22;33326;51.116;6.900;2022-11-15T17:05:14;14.50;99.90
47604;DHT22;33326;51.116;6.900;2022-11-15T17:10:16;14.50;99.90
47604;DHT22;33326;51.116;6.900;2022-11-15T17:15:20;14.50;99.90
47604;DHT22;33326;51.116;6.900;2022-11-15T17:20:23;14.50;99.90
47604;DHT22;33326;51.116;6.900;2022-11-15T17:25:25;14.50;99.90
47604;DHT22;33326;51.116;6.900;2022-11-15T17:30:28;14.60;99.90
47604;DHT22;33326;51.116;6.900;2022-11-15T17:35:30;14.50;99.90
47604;DHT22;33326;51.116;6.900;2022-11-15T17:40:32;14.50;99.90
47604;DHT22;33326;51.116;6.900;2022-11-15T17:45:39;14.50;99.90
47604;DHT22;33326;51.116;6.900;2022-11-15T17:50:40;14.40;99.90
47604;DHT22;33326;51.116;6.900;2022-11-15T17:55:42;14.40;99.90
47604;DHT22;33326;51.116;6.900;2022-11-15T18:00:46;14.40;99.90
47604;DHT22;33326;51.116;6.900;2022-11-15T18:05:48;14.30;99.90
47604;DHT22;33326;51.116;6.900;2022-11-15T18:10:51;14.30;99.90
47604;DHT22;33326;51.116;6.900;2022-11-15T18:16:03;14.10;99.90
47604;DHT22;33326;51.116;6.900;2022-11-15T18:21:08;14.10;99.90
47604;DHT22;33326;51.116;6.900;2022-11-15T18:26:12;14.00;99.90
47604;DHT22;33326;51.116;6.900;2022-11-15T18:31:17;14.00;99.90
47604;DHT22;33326;51.116;6.900;2022-11-15T18:36:21;13.90;99.90
47604;DHT22;33326;51.116;6.900;2022-11-15T18:41:24;13.80;99.90
47604;DHT22;33326;51.116;6.900;2022-11-15T18:46:31;13.70;99.90
47604;DHT22;33326;51.116;6.900;2022-11-15T18:51:34;13.70;99.90
47604;DHT22;33326;51.116;6.900;2022-11-15T18:56:36;13.60;99.90
47604;DHT22;33326;51.116;6.900;2022-11-15T19:01:41;13.50;99.90
47604;DHT22;33326;51.116;6.900;2022-11-15T19:06:47;13.40;99.90
47604;DHT22;33326;51.116;6.900;2022-11-15T19:11:49;13.40;99.90
47604;DHT22;33326;51.116;6.900;2022-11-15T19:16:52;13.40;99.90
47604;DHT22;33326;51.116;6.900;2022-11-15T19:21:55;13.30;99.90
47604;DHT22;33326;51.116;6.900;2022-11-15T19:26:57;13.30;99.90
47604;DHT22;33326;51.116;6.900;2022-11-15T19:32:00;13.40;99.90
47604;DHT22;33326;51.116;6.900;2022-11-15T19:37:03;13.20;99.90
47604;DHT22;33326;51.116;6.900;2022-11-15T19:42:05;13.20;99.90
47604;DHT22;33326;51.116;6.900;2022-11-15T19:47:08;13.10;99.90
47604;DHT22;33326;51.116;6.900;2022-11-15T19:52:10;13.20;99.90
47604;DHT22;33326;51.116;6.900;2022-11-15T19:57:11;13.20;99.90
47604;DHT22;33326;51.116;6.900;2022-11-15T20:02:14;13.20;99.90
47604;DHT22;33326;51.116;6.900;2022-11-15T20:07:16;13.20;99.90
47604;DHT22;33326;51.116;6.900;2022-11-15T20:12:18;13.10;99.90
47604;DHT22;33326;51.116;6.900;2022-11-15T20:17:21;13.10;99.90
47604;DHT22;33326;51.116;6.900;2022-11-15T20:22:24;13.10;99.90
47604;DHT22;33326;51.116;6.900;2022-11-15T20:27:25;13.10;99.90
47604;DHT22;33326;51.116;6.900;2022-11-15T20:32:29;13.00;99.90
47604;DHT22;33326;51.116;6.900;2022-11-15T20:37:31;13.00;99.90
47604;DHT22;33326;51.116;6.900;2022-11-15T20:42:33;13.00;99.90
47604;DHT22;33326;51.116;6.900;2022-11-15T20:47:36;13.00;99.90
47604;DHT22;33326;51.116;6.900;2022-11-15T20:52:38;13.00;99.90
47604;DHT22;33326;51.116;6.900;2022-11-15T20:57:39;13.00;99.90
47604;DHT22;33326;51.116;6.900;2022-11-15T21:02:43;13.00;99.90
47604;DHT22;33326;51.116;6.900;2022-11-15T21:07:44;13.00;99.90
47604;DHT22;33326;51.116;6.900;2022-11-15T21:12:46;13.00;99.90
47604;DHT22;33326;51.116;6.900;2022-11-15T21:17:49;13.00;99.90
47604;DHT22;33326;51.116;6.900;2022-11-15T21:22:51;12.90;99.90
47604;DHT22;33326;51.116;6.900;2022-11-15T21:27:53;12.90;99.90
47604;DHT22;33326;51.116;6.900;2022-11-15T21:32:56;12.90;99.90
47604;DHT22;33326;51.116;6.900;2022-11-15T21:37:57;12.90;99.90
47604;DHT22;33326;51.116;6.900;2022-11-15T21:42:59;12.90;99.90
47604;DHT22;33326;51.116;6.900;2022-11-15T21:48:03;12.90;99.90
47604;DHT22;33326;51.116;6.900;2022-11-15T21:53:05;12.90;99.90
47604;DHT22;33326;51.116;6.900;2022-11-15T21:58:06;12.90;99.90
47604;DHT22;33326;51.116;6.900;2022-11-15T22:03:10;12.80;99.90
47604;DHT22;33326;51.116;6.900;2022-11-15T22:08:12;12.80;99.90
47604;DHT22;33326;51.116;6.900;2022-11-15T22:13:14;12.80;99.90
47604;DHT22;33326;51.116;6.900;2022-11-15T22:18:17;12.80;99.90
47604;DHT22;33326;51.116;6.900;2022-11-15T22:23:20;12.80;99.90
47604;DHT22;33326;51.116;6.900;2022-11-15T22:28:22;12.80;99.90
47604;DHT22;33326;51.116;6.900;2022-11-15T22:33:27;12.80;99.90
47604;DHT22;33326;51.116;6.900;2022-11-15T22:38:29;12.80;99.90
47604;DHT22;33326;51.116;6.900;2022-11-15T22:43:31;12.80;99.90
47604;DHT22;33326;51.116;6.900;2022-11-15T22:48:36;12.80;99.90
47604;DHT22;33326;51.116;6.900;2022-11-15T22:53:38;12.70;99.90
47604;DHT22;33326;51.116;6.900;2022-11-15T22:58:40;12.70;99.90
47604;DHT22;33326;51.116;6.900;2022-11-15T23:03:43;12.70;99.90
47604;DHT22;33326;51.116;6.900;2022-11-15T23:08:45;12.70;99.90
47604;DHT22;33326;51.116;6.900;2022-11-15T23:13:49;12.70;99.90
47604;DHT22;33326;51.116;6.900;2022-11-15T23:18:54;12.80;99.90
47604;DHT22;33326;51.116;6.900;2022-11-15T23:23:56;12.70;99.90
47604;DHT22;33326;51.116;6.900;2022-11-15T23:28:58;12.70;99.90
47604;DHT22;33326;51.116;6.900;2022-11-15T23:34:02;12.70;99.90
47604;DHT22;33326;51.116;6.900;2022-11-15T23:39:04;12.60;99.90
47604;DHT22;33326;51.116;6.900;2022-11-15T23:44:06;12.60;99.90
47604;DHT22;33326;51.116;6.900;2022-11-15T23:49:09;12.60;99.90
47604;DHT22;33326;51.116;6.900;2022-11-15T23:54:11;12.60;99.90
47604;DHT22;33326;51.116;6.900;2022-11-15T23:59:13;12.70;99.90
